createdAt,value
2022-08-24T00:00:26.071Z,94522.38
2022-08-24T00:02:52.839Z,94526.44
2022-08-24T00:05:21.460Z,94521.94
2022-08-24T00:07:49.602Z,94516.97
2022-08-24T00:10:17.423Z,94534.78
2022-08-24T00:12:44.075Z,94528.00
2022-08-24T00:15:13.457Z,94530.16
2022-08-24T00:17:40.561Z,94525.09
2022-08-24T00:20:09.657Z,94530.56
2022-08-24T00:22:36.283Z,94534.47
2022-08-24T00:25:03.943Z,94533.44
2022-08-24T00:27:30.779Z,94523.41
2022-08-24T00:29:57.684Z,94526.38
2022-08-24T00:32:24.403Z,94526.69
2022-08-24T00:34:59.296Z,94523.31
2022-08-24T00:37:28.730Z,94523.41
2022-08-24T00:39:56.433Z,94512.88
2022-08-24T00:42:24.794Z,94521.88
2022-08-24T00:44:52.199Z,94520.34
2022-08-24T00:47:25.742Z,94514.19
2022-08-24T00:49:58.528Z,94527.34
2022-08-24T00:52:33.581Z,94515.47
2022-08-24T00:55:09.715Z,94514.88
2022-08-24T00:57:40.346Z,94515.19
2022-08-24T01:00:15.747Z,94507.47
2022-08-24T01:02:45.738Z,94514.00
2022-08-24T01:05:13.023Z,94516.84
2022-08-24T01:07:40.645Z,94519.66
2022-08-24T01:10:13.685Z,94514.72
2022-08-24T01:12:48.235Z,94522.03
2022-08-24T01:15:27.347Z,94520.34
2022-08-24T01:18:13.073Z,94516.47
2022-08-24T01:20:40.051Z,94513.66
2022-08-24T01:23:36.796Z,94515.81
2022-08-24T01:26:05.354Z,94521.22
2022-08-24T01:28:33.608Z,94519.47
2022-08-24T01:31:03.909Z,94526.31
2022-08-24T01:33:32.060Z,94525.63
2022-08-24T01:36:04.999Z,94523.81
2022-08-24T01:38:33.430Z,94520.78
2022-08-24T01:41:02.896Z,94522.34
2022-08-24T01:43:30.439Z,94521.13
2022-08-24T01:45:58.583Z,94521.13
2022-08-24T01:48:25.305Z,94521.59
2022-08-24T01:50:53.894Z,94513.06
2022-08-24T01:53:22.824Z,94518.31
2022-08-24T01:55:50.417Z,94518.94
2022-08-24T01:58:18.341Z,94517.56
2022-08-24T02:00:45.427Z,94512.97
2022-08-24T02:03:14.009Z,94517.31
2022-08-24T02:05:42.849Z,94517.75
2022-08-24T02:08:14.370Z,94519.47
2022-08-24T02:10:41.010Z,94518.38
2022-08-24T02:13:15.919Z,94510.81
2022-08-24T02:15:42.791Z,94506.53
2022-08-24T02:18:15.615Z,94512.22
2022-08-24T02:20:44.391Z,94512.84
2022-08-24T02:23:11.031Z,94511.00
2022-08-24T02:25:37.745Z,94518.44
2022-08-24T02:28:04.858Z,94510.69
2022-08-24T02:30:32.778Z,94514.13
2022-08-24T02:33:00.268Z,94506.41
2022-08-24T02:35:29.787Z,94511.22
2022-08-24T02:37:57.667Z,94515.09
2022-08-24T02:40:27.284Z,94511.06
2022-08-24T02:42:55.685Z,94507.84
2022-08-24T02:45:22.326Z,94510.78
2022-08-24T02:47:49.644Z,94507.69
2022-08-24T02:50:17.817Z,94509.09
2022-08-24T02:52:45.396Z,94507.34
2022-08-24T02:55:15.712Z,94505.06
2022-08-24T02:57:47.898Z,94511.22
2022-08-24T03:00:17.503Z,94503.66
2022-08-24T03:02:51.569Z,94511.22
2022-08-24T03:05:18.922Z,94511.38
2022-08-24T03:07:45.554Z,94507.81
2022-08-24T03:10:12.625Z,94503.03
2022-08-24T03:12:39.659Z,94514.00
2022-08-24T03:15:10.583Z,94500.72
2022-08-24T03:17:39.909Z,94499.00
2022-08-24T03:20:12.157Z,94500.28
2022-08-24T03:22:39.781Z,94499.94
2022-08-24T03:25:07.690Z,94503.66
2022-08-24T03:27:34.794Z,94502.88
2022-08-24T03:30:01.549Z,94506.75
2022-08-24T03:32:29.039Z,94505.97
2022-08-24T03:34:55.952Z,94503.66
2022-08-24T03:37:22.549Z,94507.34
2022-08-24T03:39:51.023Z,94507.03
2022-08-24T03:42:18.615Z,94513.38
2022-08-24T03:44:45.373Z,94506.75
2022-08-24T03:47:12.120Z,94510.59
2022-08-24T03:49:39.581Z,94512.91
2022-08-24T03:52:07.450Z,94511.50
2022-08-24T03:54:34.732Z,94509.22
2022-08-24T03:57:01.750Z,94521.25
2022-08-24T03:59:28.686Z,94503.94
2022-08-24T04:01:58.323Z,94505.94
2022-08-24T04:04:26.738Z,94511.50
2022-08-24T04:06:53.429Z,94511.94
2022-08-24T04:09:20.868Z,94505.16
2022-08-24T04:11:47.777Z,94505.47
2022-08-24T04:14:27.579Z,94513.34
2022-08-24T04:17:14.213Z,94504.09
2022-08-24T04:19:57.632Z,94513.81
2022-08-24T04:22:30.580Z,94515.84
2022-08-24T04:24:57.336Z,94514.00
2022-08-24T04:27:24.490Z,94512.63
2022-08-24T04:29:51.308Z,94516.31
2022-08-24T04:32:18.758Z,94516.16
2022-08-24T04:34:47.050Z,94516.91
2022-08-24T04:37:14.718Z,94521.25
2022-08-24T04:39:42.288Z,94521.25
2022-08-24T04:42:24.389Z,94521.88
2022-08-24T04:44:52.388Z,94521.56
2022-08-24T04:47:22.355Z,94522.00
2022-08-24T04:49:49.017Z,94532.06
2022-08-24T04:52:15.926Z,94525.41
2022-08-24T04:54:43.118Z,94529.09
2022-08-24T04:57:18.010Z,94531.41
2022-08-24T04:59:46.574Z,94528.31
2022-08-24T05:02:13.366Z,94529.25
2022-08-24T05:04:40.140Z,94534.19
2022-08-24T05:07:07.543Z,94534.34
2022-08-24T05:09:34.416Z,94532.81
2022-08-24T05:12:01.951Z,94543.59
2022-08-24T05:14:33.439Z,94533.00
2022-08-24T05:17:00.374Z,94541.59
2022-08-24T05:19:30.741Z,94541.78
2022-08-24T05:21:57.525Z,94543.19
2022-08-24T05:24:24.935Z,94550.28
2022-08-24T05:26:53.131Z,94542.56
2022-08-24T05:29:20.770Z,94551.84
2022-08-24T05:31:49.822Z,94548.31
2022-08-24T05:34:17.995Z,94545.97
2022-08-24T05:36:45.576Z,94543.16
2022-08-24T05:39:21.275Z,94551.91
2022-08-24T05:41:54.184Z,94558.38
2022-08-24T05:44:30.760Z,94553.25
2022-08-24T05:47:01.125Z,94553.22
2022-08-24T05:49:28.523Z,94553.47
2022-08-24T05:51:55.548Z,94556.53
2022-08-24T05:54:23.396Z,94559.38
2022-08-24T05:57:04.668Z,94560.06
2022-08-24T05:59:36.876Z,94566.31
2022-08-24T06:02:09.625Z,94560.34
2022-08-24T06:04:38.184Z,94575.56
2022-08-24T06:07:06.332Z,94569.41
2022-08-24T06:09:34.552Z,94577.25
2022-08-24T06:12:01.120Z,94583.56
2022-08-24T06:14:28.136Z,94574.34
2022-08-24T06:16:57.973Z,94577.13
2022-08-24T06:19:26.962Z,94571.63
2022-08-24T06:21:55.396Z,94570.34
2022-08-24T06:24:45.983Z,94576.31
2022-08-24T06:27:23.982Z,94570.63
2022-08-24T06:30:05.147Z,94577.00
2022-08-24T06:32:52.019Z,94576.81
2022-08-24T06:35:26.330Z,94572.34
2022-08-24T06:37:55.250Z,94580.41
2022-08-24T06:40:25.886Z,94575.81
2022-08-24T06:42:54.662Z,94577.56
2022-08-24T06:45:43.825Z,94583.69
2022-08-24T06:48:12.634Z,94590.53
2022-08-24T06:50:40.503Z,94581.50
2022-08-24T06:53:07.130Z,94588.22
2022-08-24T06:55:34.777Z,94587.22
2022-08-24T06:58:02.694Z,94592.28
2022-08-24T07:00:30.751Z,94592.94
2022-08-24T07:02:57.472Z,94598.88
2022-08-24T07:05:24.239Z,94599.41
2022-08-24T07:08:09.198Z,94609.88
2022-08-24T07:10:38.153Z,94605.59
2022-08-24T07:13:05.060Z,94600.59
2022-08-24T07:15:31.912Z,94607.84
2022-08-24T07:18:12.659Z,94612.66
2022-08-24T07:20:42.722Z,94608.69
2022-08-24T07:23:22.088Z,94608.53
2022-08-24T07:26:21.132Z,94610.34
2022-08-24T07:28:52.393Z,94617.03
2022-08-24T07:31:21.153Z,94608.50
2022-08-24T07:33:59.660Z,94612.59
2022-08-24T07:36:28.467Z,94609.88
2022-08-24T07:38:57.350Z,94609.94
2022-08-24T07:44:17.418Z,94609.53
2022-08-24T07:46:45.184Z,94611.19
2022-08-24T07:49:31.646Z,94614.25
2022-08-24T07:52:01.906Z,94615.34
2022-08-24T07:54:29.089Z,94623.03
2022-08-24T07:56:59.992Z,94623.66
2022-08-24T07:59:27.094Z,94625.69
2022-08-24T08:01:53.742Z,94622.44
2022-08-24T08:04:24.280Z,94626.47
2022-08-24T08:06:52.085Z,94624.59
2022-08-24T08:09:20.004Z,94630.75
2022-08-24T08:11:46.696Z,94621.34
2022-08-24T08:14:14.906Z,94629.91
2022-08-24T08:16:41.998Z,94631.94
2022-08-24T08:19:10.635Z,94631.41
2022-08-24T08:22:04.528Z,94630.44
2022-08-24T08:24:36.926Z,94623.78
2022-08-24T08:27:03.731Z,94626.56
2022-08-24T08:29:39.556Z,94623.31
2022-08-24T08:32:07.937Z,94622.75
2022-08-24T08:34:34.627Z,94619.22
2022-08-24T08:37:03.627Z,94625.53
2022-08-24T08:39:30.494Z,94627.19
2022-08-24T08:42:17.096Z,94619.72
2022-08-24T08:45:27.119Z,94614.63
2022-08-24T08:48:39.654Z,94614.78
2022-08-24T08:51:40.785Z,94614.81
2022-08-24T08:54:26.501Z,94618.88
2022-08-24T08:57:17.458Z,94618.00
2022-08-24T09:00:10.081Z,94618.59
2022-08-24T09:03:03.514Z,94618.31
2022-08-24T09:06:10.756Z,94617.03
2022-08-24T09:09:03.580Z,94625.16
2022-08-24T09:11:43.612Z,94618.78
2022-08-24T09:14:44.858Z,94607.50
2022-08-24T09:17:33.303Z,94612.88
2022-08-24T09:20:31.545Z,94614.38
2022-08-24T09:23:30.549Z,94608.75
2022-08-24T09:26:19.193Z,94607.41
2022-08-24T09:29:03.708Z,94608.28
2022-08-24T09:31:51.724Z,94613.72
2022-08-24T09:34:25.921Z,94605.44
2022-08-24T09:36:57.321Z,94616.59
2022-08-24T09:39:53.389Z,94609.97
2022-08-24T09:42:52.246Z,94609.88
2022-08-24T09:45:52.240Z,94607.44
2022-08-24T09:48:24.730Z,94608.25
2022-08-24T09:51:06.283Z,94609.53
2022-08-24T09:53:56.810Z,94607.78
2022-08-24T09:57:12.107Z,94608.28
2022-08-24T09:59:48.472Z,94607.25
2022-08-24T10:02:56.407Z,94603.50
2022-08-24T10:05:42.088Z,94604.69
2022-08-24T10:08:47.231Z,94603.28
2022-08-24T10:11:35.512Z,94600.25
2022-08-24T10:14:34.199Z,94598.75
2022-08-24T10:17:37.015Z,94599.22
2022-08-24T10:20:16.865Z,94596.66
2022-08-24T10:23:05.747Z,94594.47
2022-08-24T10:26:00.364Z,94596.84
2022-08-24T10:29:10.231Z,94594.16
2022-08-24T10:31:37.023Z,94597.63
2022-08-24T10:34:22.762Z,94593.13
2022-08-24T10:37:08.431Z,94584.81
2022-08-24T10:40:22.054Z,94579.88
2022-08-24T10:43:35.612Z,94586.09
2022-08-24T10:46:45.590Z,94575.84
2022-08-24T10:49:36.389Z,94573.56
2022-08-24T10:52:12.261Z,94576.63
2022-08-24T10:54:39.143Z,94568.59
2022-08-24T10:57:12.149Z,94575.88
2022-08-24T10:59:57.419Z,94584.28
2022-08-24T11:02:31.398Z,94581.63
2022-08-24T11:05:05.746Z,94584.31
2022-08-24T11:07:33.069Z,94585.06
2022-08-24T11:10:02.847Z,94584.31
2022-08-24T11:12:29.440Z,94585.06
2022-08-24T11:14:59.573Z,94589.28
2022-08-24T11:17:29.440Z,94583.53
2022-08-24T11:19:57.466Z,94580.84
2022-08-24T11:22:57.933Z,94577.41
2022-08-24T11:25:30.444Z,94582.75
2022-08-24T11:28:09.611Z,94580.44
2022-08-24T11:30:40.177Z,94582.69
2022-08-24T11:33:26.097Z,94584.97
2022-08-24T11:35:52.841Z,94570.38
2022-08-24T11:38:23.645Z,94574.13
2022-08-24T11:40:52.035Z,94576.72
2022-08-24T11:43:42.922Z,94574.03
2022-08-24T11:46:15.972Z,94575.53
2022-08-24T11:49:03.731Z,94568.53
2022-08-24T11:51:44.389Z,94580.00
2022-08-24T11:54:34.574Z,94576.44
2022-08-24T11:57:08.467Z,94575.50
2022-08-24T11:59:57.269Z,94573.88
2022-08-24T12:02:35.548Z,94573.38
2022-08-24T12:05:26.746Z,94567.19
2022-08-24T12:08:10.304Z,94569.44
2022-08-24T12:10:57.924Z,94569.63
2022-08-24T12:13:58.528Z,94569.88
2022-08-24T12:17:02.290Z,94564.03
2022-08-24T12:19:36.310Z,94562.84
2022-08-24T12:22:07.209Z,94567.16
2022-08-24T12:24:41.360Z,94567.38
2022-08-24T12:27:29.541Z,94563.72
2022-08-24T12:30:05.903Z,94556.28
2022-08-24T12:33:05.682Z,94559.97
2022-08-24T12:35:42.532Z,94560.03
2022-08-24T12:38:13.297Z,94549.13
2022-08-24T12:40:48.186Z,94553.22
2022-08-24T12:43:25.253Z,94548.00
2022-08-24T12:45:55.208Z,94548.63
2022-08-24T12:48:27.643Z,94546.72
2022-08-24T12:51:39.486Z,94553.22
2022-08-24T12:54:11.900Z,94547.84
2022-08-24T12:57:02.922Z,94539.34
2022-08-24T12:59:39.553Z,94536.19
2022-08-24T13:02:28.315Z,94541.34
2022-08-24T13:04:59.402Z,94537.81
2022-08-24T13:07:39.926Z,94532.31
2022-08-24T13:10:14.663Z,94540.69
2022-08-24T13:12:45.045Z,94530.34
2022-08-24T13:15:28.365Z,94534.81
2022-08-24T13:18:07.470Z,94528.81
2022-08-24T13:20:36.985Z,94526.00
2022-08-24T13:23:13.981Z,94529.00
2022-08-24T13:25:46.794Z,94528.75
2022-08-24T13:28:22.549Z,94525.72
2022-08-24T13:31:23.167Z,94526.69
2022-08-24T13:33:49.855Z,94519.69
2022-08-24T13:36:31.666Z,94523.44
2022-08-24T13:39:01.276Z,94523.31
2022-08-24T13:41:43.112Z,94525.09
2022-08-24T13:44:15.854Z,94518.16
2022-08-24T13:47:22.783Z,94519.00
2022-08-24T13:50:26.777Z,94521.47
2022-08-24T13:53:15.091Z,94526.50
2022-08-24T13:55:52.072Z,94512.19
2022-08-24T13:58:46.426Z,94514.03
2022-08-24T14:01:35.118Z,94515.81
2022-08-24T14:04:12.004Z,94515.19
2022-08-24T14:06:56.624Z,94523.41
2022-08-24T14:09:48.438Z,94519.97
2022-08-24T14:12:30.458Z,94518.81
2022-08-24T14:15:02.673Z,94522.72
2022-08-24T14:17:55.466Z,94524.63
2022-08-24T14:21:17.960Z,94523.81
2022-08-24T14:23:55.649Z,94519.28
2022-08-24T14:26:34.394Z,94518.44
2022-08-24T14:29:34.666Z,94508.25
2022-08-24T14:32:11.785Z,94506.97
2022-08-24T14:34:41.885Z,94508.44
2022-08-24T14:37:14.464Z,94510.25
2022-08-24T14:40:15.267Z,94510.84
2022-08-24T14:42:59.820Z,94510.63
2022-08-24T14:46:04.309Z,94510.00
2022-08-24T14:48:50.398Z,94510.38
2022-08-24T14:51:51.092Z,94507.03
2022-08-24T14:54:17.675Z,94512.75
2022-08-24T14:56:58.903Z,94508.25
2022-08-24T14:59:53.224Z,94505.22
2022-08-24T15:02:46.862Z,94501.94
2022-08-24T15:05:31.500Z,94491.09
2022-08-24T15:08:01.397Z,94494.75
2022-08-24T15:10:48.731Z,94489.59
2022-08-24T15:13:36.176Z,94493.66
2022-08-24T15:16:25.535Z,94490.41
2022-08-24T15:19:27.239Z,94489.56
2022-08-24T15:21:56.966Z,94486.50
2022-08-24T15:24:55.076Z,94481.84
2022-08-24T15:27:33.045Z,94487.03
2022-08-24T15:30:05.682Z,94485.50
2022-08-24T15:32:49.694Z,94490.63
2022-08-24T15:35:27.123Z,94484.47
2022-08-24T15:37:54.114Z,94494.88
2022-08-24T15:40:29.622Z,94487.66
2022-08-24T15:43:04.023Z,94493.31
2022-08-24T15:45:32.412Z,94496.75
2022-08-24T15:48:01.423Z,94489.22
2022-08-24T15:50:33.800Z,94494.66
2022-08-24T15:53:02.926Z,94501.25
2022-08-24T15:55:37.883Z,94494.63
2022-08-24T15:58:19.493Z,94496.50
2022-08-24T16:01:05.127Z,94499.19
2022-08-24T16:03:53.959Z,94492.09
2022-08-24T16:06:32.352Z,94493.06
2022-08-24T16:09:34.340Z,94500.31
2022-08-24T16:12:03.739Z,94494.38
2022-08-24T16:14:39.156Z,94492.28
2022-08-24T16:17:49.218Z,94501.59
2022-08-24T16:20:23.421Z,94498.66
2022-08-24T16:23:00.247Z,94498.72
2022-08-24T16:25:31.105Z,94499.38
2022-08-24T16:28:09.915Z,94481.75
2022-08-24T16:30:39.289Z,94496.28
2022-08-24T16:33:06.724Z,94494.88
2022-08-24T16:35:33.482Z,94494.94
2022-08-24T16:38:01.064Z,94502.75
2022-08-24T16:40:29.344Z,94496.72
2022-08-24T16:42:56.500Z,94487.88
2022-08-24T16:45:23.869Z,94489.78
2022-08-24T16:47:50.544Z,94494.41
2022-08-24T16:50:20.519Z,94492.50
2022-08-24T16:52:48.971Z,94489.13
2022-08-24T16:55:15.700Z,94496.00
2022-08-24T16:57:42.515Z,94497.53
2022-08-24T17:00:16.232Z,94494.50
2022-08-24T17:02:44.861Z,94495.03
2022-08-24T17:05:11.883Z,94487.88
2022-08-24T17:07:38.542Z,94496.75
2022-08-24T17:10:09.097Z,94500.28
2022-08-24T17:12:37.024Z,94500.31
2022-08-24T17:15:06.492Z,94508.81
2022-08-24T17:17:33.443Z,94511.97
2022-08-24T17:20:00.329Z,94497.19
2022-08-24T17:22:27.601Z,94505.28
2022-08-24T17:24:54.244Z,94507.69
2022-08-24T17:27:26.783Z,94507.41
2022-08-24T17:29:53.401Z,94497.88
2022-08-24T17:32:20.014Z,94506.75
2022-08-24T17:34:46.595Z,94511.75
2022-08-24T17:37:13.283Z,94517.47
2022-08-24T17:39:40.088Z,94510.94
2022-08-24T17:42:20.985Z,94517.34
2022-08-24T17:44:47.814Z,94522.63
2022-08-24T17:47:15.252Z,94522.16
2022-08-24T17:49:41.896Z,94523.56
2022-08-24T17:52:08.507Z,94533.38
2022-08-24T17:54:35.264Z,94534.47
2022-08-24T17:57:02.127Z,94528.63
2022-08-24T17:59:31.786Z,94533.13
2022-08-24T18:02:00.713Z,94537.25
2022-08-24T18:04:30.057Z,94535.28
2022-08-24T18:07:03.320Z,94536.72
2022-08-24T18:09:37.377Z,94527.50
2022-08-24T18:12:08.765Z,94529.69
2022-08-24T18:14:36.031Z,94537.63
2022-08-24T18:17:06.910Z,94532.97
2022-08-24T18:19:34.471Z,94536.72
2022-08-24T18:22:01.877Z,94540.88
2022-08-24T18:24:32.594Z,94542.38
2022-08-24T18:27:10.852Z,94544.59
2022-08-24T18:29:40.646Z,94542.66
2022-08-24T18:32:10.111Z,94550.97
2022-08-24T18:34:37.126Z,94540.66
2022-08-24T18:37:04.223Z,94545.56
2022-08-24T18:39:30.868Z,94553.47
2022-08-24T18:42:01.118Z,94555.69
2022-08-24T18:44:31.620Z,94556.78
2022-08-24T18:46:59.482Z,94556.72
2022-08-24T18:49:26.837Z,94554.44
2022-08-24T18:51:53.588Z,94562.03
2022-08-24T18:54:29.092Z,94560.44
2022-08-24T18:56:55.699Z,94560.28
2022-08-24T18:59:22.362Z,94557.81
2022-08-24T19:02:09.655Z,94558.06
2022-08-24T19:04:44.190Z,94562.47
2022-08-24T19:07:11.134Z,94560.81
2022-08-24T19:09:38.214Z,94560.31
2022-08-24T19:12:06.363Z,94552.94
2022-08-24T19:14:34.396Z,94560.53
2022-08-24T19:17:01.117Z,94559.69
2022-08-24T19:19:27.763Z,94568.38
2022-08-24T19:21:54.607Z,94567.19
2022-08-24T19:24:25.623Z,94564.91
2022-08-24T19:26:52.463Z,94565.59
2022-08-24T19:29:38.910Z,94559.06
2022-08-24T19:32:10.039Z,94553.53
2022-08-24T19:34:42.970Z,94564.66
2022-08-24T19:37:10.020Z,94565.00
2022-08-24T19:39:36.609Z,94562.28
2022-08-24T19:42:04.234Z,94565.25
2022-08-24T19:44:51.971Z,94558.69
2022-08-24T19:47:18.750Z,94565.88
2022-08-24T19:49:45.712Z,94558.63
2022-08-24T19:52:13.457Z,94561.28
2022-08-24T19:54:44.504Z,94559.25
2022-08-24T19:57:29.327Z,94564.63
2022-08-24T19:59:59.967Z,94569.06
2022-08-24T20:02:27.094Z,94563.34
2022-08-24T20:04:53.785Z,94569.75
2022-08-24T20:07:20.596Z,94569.00
2022-08-24T20:09:47.272Z,94563.28
2022-08-24T20:12:13.936Z,94570.47
2022-08-24T20:14:40.566Z,94564.38
2022-08-24T20:17:07.160Z,94569.66
2022-08-24T20:19:37.898Z,94564.59
2022-08-24T20:22:13.135Z,94572.22
2022-08-24T20:24:40.346Z,94569.09
2022-08-24T20:27:06.915Z,94571.69
2022-08-24T20:29:33.536Z,94566.31
2022-08-24T20:32:02.554Z,94570.09
2022-08-24T20:34:29.697Z,94567.06
2022-08-24T20:36:57.400Z,94562.13
2022-08-24T20:39:26.048Z,94560.59
2022-08-24T20:41:53.398Z,94564.38
2022-08-24T20:44:21.116Z,94566.25
2022-08-24T20:46:50.097Z,94557.13
2022-08-24T20:49:21.138Z,94557.44
2022-08-24T20:51:47.613Z,94551.72
2022-08-24T20:54:14.848Z,94547.81
2022-08-24T20:56:43.981Z,94558.81
2022-08-24T20:59:13.011Z,94555.72
2022-08-24T21:01:43.520Z,94553.41
2022-08-24T21:04:10.639Z,94549.59
2022-08-24T21:06:40.458Z,94546.50
2022-08-24T21:09:07.416Z,94543.41
2022-08-24T21:11:40.987Z,94545.72
2022-08-24T21:14:08.574Z,94549.59
2022-08-24T21:16:39.561Z,94544.69
2022-08-24T21:19:06.745Z,94551.13
2022-08-24T21:21:33.690Z,94544.88
2022-08-24T21:24:01.768Z,94555.56
2022-08-24T21:26:29.516Z,94559.75
2022-08-24T21:28:58.124Z,94561.63
2022-08-24T21:31:26.337Z,94561.97
2022-08-24T21:34:12.285Z,94566.59
2022-08-24T21:36:39.976Z,94569.19
2022-08-24T21:39:10.718Z,94569.59
2022-08-24T21:41:37.989Z,94568.41
2022-08-24T21:44:04.610Z,94574.41
2022-08-24T21:46:35.422Z,94576.66
2022-08-24T21:49:03.058Z,94574.31
2022-08-24T21:51:30.318Z,94565.97
2022-08-24T21:53:59.576Z,94561.34
2022-08-24T21:56:30.616Z,94563.59
2022-08-24T21:58:57.464Z,94563.50
2022-08-24T22:01:24.220Z,94558.13
2022-08-24T22:03:50.932Z,94554.00
2022-08-24T22:06:18.304Z,94552.50
2022-08-24T22:08:44.918Z,94560.44
2022-08-24T22:11:13.438Z,94547.88
2022-08-24T22:13:40.536Z,94550.19
2022-08-24T22:16:07.670Z,94550.94
2022-08-24T22:18:35.392Z,94540.34
2022-08-24T22:21:11.590Z,94546.75
2022-08-24T22:23:38.980Z,94539.84
2022-08-24T22:26:05.835Z,94533.78
2022-08-24T22:28:37.981Z,94530.63
2022-08-24T22:31:18.318Z,94534.47
2022-08-24T22:33:45.088Z,94531.41
2022-08-24T22:36:15.367Z,94532.09
2022-08-24T22:38:42.700Z,94537.31
2022-08-24T22:41:09.770Z,94536.13
2022-08-24T22:43:54.965Z,94536.09
2022-08-24T22:46:23.157Z,94529.53
2022-08-24T22:48:49.950Z,94538.66
2022-08-24T22:51:16.583Z,94530.28
2022-08-24T22:53:43.159Z,94537.81
2022-08-24T22:56:19.176Z,94537.75
2022-08-24T22:58:46.251Z,94533.06
2022-08-24T23:01:31.050Z,94532.97
2022-08-24T23:04:01.837Z,94534.78
2022-08-24T23:06:28.994Z,94528.31
2022-08-24T23:08:56.138Z,94524.47
2022-08-24T23:11:26.706Z,94526.34
2022-08-24T23:13:56.333Z,94532.75
2022-08-24T23:16:24.917Z,94529.66
2022-08-24T23:19:10.012Z,94528.78
2022-08-24T23:21:36.747Z,94528.72
2022-08-24T23:24:03.962Z,94521.13
2022-08-24T23:26:32.591Z,94523.34
2022-08-24T23:29:00.606Z,94523.75
2022-08-24T23:31:27.335Z,94518.47
2022-08-24T23:33:54.205Z,94518.47
2022-08-24T23:36:23.636Z,94515.81
2022-08-24T23:38:55.081Z,94512.06
2022-08-24T23:41:33.533Z,94512.84
2022-08-24T23:44:03.163Z,94507.53
2022-08-24T23:46:29.822Z,94511.66
2022-08-24T23:48:57.941Z,94498.31
2022-08-24T23:51:27.133Z,94500.19
2022-08-24T23:53:53.914Z,94497.13
2022-08-24T23:56:25.431Z,94496.28
2022-08-24T23:58:53.130Z,94507.56
